Strona główna
METAR-TAF:

METAR-TAF

Lotnisko :

Port lotniczy Pakxe

Pakxe, Laos

Szerokość geograficzna: 15-08-02N, Długość geograficzna: 105-46-55E, wysokość: 107 m

Aktualna obserwacja pogody

Raport powstał 1 godzina i 47 minut temu, godzina 09:00 UTC
Wiatr 4 kt od południowy wschód
Temperatura 27°C
Wilgotność 89%
Ciśnienie 1006 hPa
Widzialność 10 km lub więcej
Rozproszone chmury na wysokości 1300 ft
Rozproszone chmury na wysokości 5000 ft
Przerywane chmury na wysokości 20000 ft

METAR: VLPS 180900Z 14004KT 9999 SCT013 SCT050 BKN200 27/25 Q1006 NOSIG

czas: 17:47 (10:47 UTC)

Prognoza

Raport powstał 5 godziny i 47 minut temu, godzina 05:00 UTC
Prognoza ważna od 18 godzina 06 UTC do 19 godzina 06 UTC
Wiatr 6 kt od południowy wschód
Widzialność 10 km lub więcej
Rozproszone chmury na wysokości 2000 ft
Przerywane chmury na wysokości 5000 ft

TAF: VLPS 180500Z 1806/1906 14006KT 9999 SCT020 BKN050

Obserwacja i prognoza pogody dla ponad 4000 lotnisk (raport METAR i TAF).

Dostępne stacje oznaczono żółtymi i czerwonymi punktami na mapie.

Najedź kursorem aby zobaczyć nazwę stacji.

Kliknij aby zobaczyć obserwacje i prognozy pogody.

Aby zmienić mapę: kliknij na zielony przycisk z czarnym krzyżykiem, aby powiększyć; na zielony przycisk z myślnikiem, aby pomniejszyć; na zielone strzałki, aby przejść do map sąsiednich.


METAR-TAF: